createdAt,value
2023-05-01T00:01:20.205Z,14.00
2023-05-01T00:04:09.646Z,14.00
2023-05-01T00:06:58.131Z,13.90
2023-05-01T00:09:47.254Z,13.90
2023-05-01T00:12:36.538Z,14.00
2023-05-01T00:15:25.794Z,13.90
2023-05-01T00:18:14.498Z,13.90
2023-05-01T00:21:03.962Z,13.80
2023-05-01T00:23:52.913Z,13.80
2023-05-01T00:26:42.051Z,13.90
2023-05-01T00:29:30.723Z,13.90
2023-05-01T00:32:19.508Z,13.80
2023-05-01T00:35:08.657Z,13.90
2023-05-01T00:37:58.505Z,13.90
2023-05-01T00:40:47.721Z,13.90
2023-05-01T00:43:36.415Z,13.90
2023-05-01T00:46:25.862Z,13.90
2023-05-01T00:49:15.294Z,13.90
2023-05-01T00:52:04.784Z,13.90
2023-05-01T00:54:53.750Z,14.00
2023-05-01T00:57:42.502Z,14.00
2023-05-01T01:00:32.384Z,14.00
2023-05-01T01:03:21.726Z,14.00
2023-05-01T01:06:17.202Z,14.00
2023-05-01T01:09:24.404Z,14.00
2023-05-01T01:12:33.004Z,14.00
2023-05-01T01:15:21.198Z,13.90
2023-05-01T01:18:36.701Z,14.00
2023-05-01T01:21:43.000Z,14.00
2023-05-01T01:25:09.568Z,13.90
2023-05-01T01:28:22.765Z,14.00
2023-05-01T01:31:54.123Z,13.90
2023-05-01T01:35:00.499Z,13.80
2023-05-01T01:38:09.781Z,13.70
2023-05-01T01:41:05.100Z,13.70
2023-05-01T01:44:03.902Z,13.70
2023-05-01T01:46:55.230Z,13.60
2023-05-01T01:49:49.723Z,13.60
2023-05-01T01:52:40.187Z,13.60
2023-05-01T01:55:32.597Z,13.60
2023-05-01T01:58:26.493Z,13.50
2023-05-01T02:01:17.819Z,13.50
2023-05-01T02:04:33.145Z,13.50
2023-05-01T02:07:23.619Z,13.60
2023-05-01T02:10:15.281Z,13.60
2023-05-01T02:13:06.289Z,13.60
2023-05-01T02:15:59.513Z,13.60
2023-05-01T02:18:49.828Z,13.50
2023-05-01T02:21:39.930Z,13.50
2023-05-01T02:24:29.829Z,13.40
2023-05-01T02:27:23.818Z,13.40
2023-05-01T02:30:14.243Z,13.40
2023-05-01T02:33:02.827Z,13.40
2023-05-01T02:35:52.712Z,13.40
2023-05-01T02:38:42.310Z,13.40
2023-05-01T02:41:32.137Z,13.40
2023-05-01T02:44:23.981Z,13.40
2023-05-01T02:47:18.736Z,13.40
2023-05-01T02:50:09.236Z,13.40
2023-05-01T02:52:59.801Z,13.40
2023-05-01T02:56:05.300Z,13.40
2023-05-01T02:58:54.140Z,13.50
2023-05-01T03:01:42.686Z,13.50
2023-05-01T03:04:32.274Z,13.50
2023-05-01T03:07:21.739Z,13.50
2023-05-01T03:10:11.304Z,13.50
2023-05-01T03:13:00.610Z,13.60
2023-05-01T03:15:49.435Z,13.60
2023-05-01T03:18:38.784Z,13.60
2023-05-01T03:21:27.872Z,13.60
2023-05-01T03:24:16.764Z,13.60
2023-05-01T03:27:05.970Z,13.60
2023-05-01T03:29:55.833Z,13.60
2023-05-01T03:32:45.518Z,13.70
2023-05-01T03:36:18.456Z,13.70
2023-05-01T03:39:09.091Z,13.70
2023-05-01T03:42:16.374Z,13.70
2023-05-01T03:45:06.489Z,13.60
2023-05-01T03:47:55.362Z,13.60
2023-05-01T03:50:43.806Z,13.60
2023-05-01T03:53:33.245Z,13.60
2023-05-01T03:56:26.263Z,13.60
2023-05-01T03:59:15.901Z,13.50
2023-05-01T04:02:05.277Z,13.50
2023-05-01T04:04:57.602Z,13.50
2023-05-01T04:07:47.058Z,13.50
2023-05-01T04:10:36.200Z,13.50
2023-05-01T04:13:26.722Z,13.40
2023-05-01T04:16:16.520Z,13.20
2023-05-01T04:19:04.879Z,13.20
2023-05-01T04:21:56.942Z,13.20
2023-05-01T04:24:45.776Z,13.20
2023-05-01T04:27:35.377Z,13.20
2023-05-01T04:30:24.218Z,13.20
2023-05-01T04:33:12.644Z,13.20
2023-05-01T04:36:02.609Z,13.20
2023-05-01T04:38:55.371Z,13.20
2023-05-01T04:41:44.136Z,13.20
2023-05-01T04:44:34.319Z,13.20
2023-05-01T04:47:24.220Z,13.20
2023-05-01T04:50:37.847Z,13.20
2023-05-01T04:53:27.350Z,13.20
2023-05-01T04:56:16.041Z,13.30
2023-05-01T04:59:05.542Z,13.30
2023-05-01T05:01:54.300Z,13.20
2023-05-01T05:04:43.835Z,13.20
2023-05-01T05:07:32.789Z,13.20
2023-05-01T05:10:41.357Z,13.20
2023-05-01T05:13:56.190Z,13.30
2023-05-01T05:18:51.148Z,13.30
2023-05-01T05:21:20.458Z,13.30
2023-05-01T05:23:52.733Z,13.40
2023-05-01T05:26:21.953Z,13.30
2023-05-01T05:28:51.403Z,13.30
2023-05-01T05:31:19.567Z,13.20
2023-05-01T05:33:48.374Z,13.20
2023-05-01T05:36:17.805Z,13.20
2023-05-01T05:38:46.684Z,13.20
2023-05-01T05:41:19.380Z,13.20
2023-05-01T05:43:50.183Z,13.30
2023-05-01T05:46:18.865Z,13.20
2023-05-01T05:48:47.632Z,13.20
2023-05-01T05:51:16.182Z,13.20
2023-05-01T05:53:45.149Z,13.10
2023-05-01T05:56:14.178Z,13.20
2023-05-01T05:58:42.744Z,13.20
2023-05-01T06:01:11.994Z,13.20
2023-05-01T06:03:41.438Z,13.20
2023-05-01T06:06:11.170Z,13.20
2023-05-01T06:08:40.336Z,13.30
2023-05-01T06:11:12.760Z,13.30
2023-05-01T06:13:41.071Z,13.30
2023-05-01T06:16:09.420Z,13.40
2023-05-01T06:18:37.876Z,13.40
2023-05-01T06:21:07.279Z,13.40
2023-05-01T06:23:36.699Z,13.50
2023-05-01T06:26:23.400Z,13.50
2023-05-01T06:28:53.047Z,13.40
2023-05-01T06:31:21.876Z,13.40
2023-05-01T06:33:56.916Z,13.40
2023-05-01T06:36:32.436Z,13.40
2023-05-01T06:39:01.408Z,13.30
2023-05-01T06:41:33.036Z,13.40
2023-05-01T06:44:01.636Z,13.50
2023-05-01T06:46:29.919Z,13.50
2023-05-01T06:48:59.147Z,13.50
2023-05-01T06:51:27.868Z,13.40
2023-05-01T06:53:56.878Z,13.40
2023-05-01T06:56:25.799Z,13.40
2023-05-01T06:58:54.511Z,13.50
2023-05-01T07:01:23.558Z,13.50
2023-05-01T07:03:51.897Z,13.40
2023-05-01T07:06:20.560Z,13.40
2023-05-01T07:08:49.739Z,13.50
2023-05-01T07:11:18.668Z,13.50
2023-05-01T07:13:47.206Z,13.50
2023-05-01T07:16:15.455Z,13.50
2023-05-01T07:18:43.849Z,13.50
2023-05-01T07:21:13.200Z,13.60
2023-05-01T07:23:42.130Z,13.60
2023-05-01T07:26:10.891Z,13.70
2023-05-01T07:28:39.799Z,13.70
2023-05-01T07:31:09.980Z,13.70
2023-05-01T07:33:38.466Z,13.80
2023-05-01T07:36:07.845Z,13.90
2023-05-01T07:38:36.633Z,13.80
2023-05-01T07:41:05.419Z,13.60
2023-05-01T07:43:34.183Z,13.60
2023-05-01T07:46:03.180Z,13.60
2023-05-01T07:48:32.862Z,13.60
2023-05-01T07:51:04.224Z,13.70
2023-05-01T07:53:33.299Z,13.70
2023-05-01T07:56:10.052Z,13.60
2023-05-01T07:58:41.623Z,13.60
2023-05-01T08:01:10.931Z,13.50
2023-05-01T08:03:39.822Z,13.60
2023-05-01T08:06:08.515Z,13.60
2023-05-01T08:08:37.267Z,13.60
2023-05-01T08:11:06.334Z,13.60
2023-05-01T08:13:35.374Z,13.60
2023-05-01T08:16:04.999Z,13.60
2023-05-01T08:18:33.459Z,13.60
2023-05-01T08:21:02.087Z,13.70
2023-05-01T08:23:31.281Z,13.70
2023-05-01T08:25:59.514Z,13.60
2023-05-01T08:28:27.596Z,13.60
2023-05-01T08:30:56.002Z,13.60
2023-05-01T08:33:25.126Z,13.60
2023-05-01T08:35:54.130Z,13.60
2023-05-01T08:38:23.072Z,13.60
2023-05-01T08:40:53.798Z,13.60
2023-05-01T08:43:24.485Z,13.60
2023-05-01T08:45:56.501Z,13.60
2023-05-01T08:48:27.373Z,13.70
2023-05-01T08:50:59.620Z,13.80
2023-05-01T08:53:29.730Z,13.90
2023-05-01T08:56:00.928Z,14.00
2023-05-01T08:58:30.587Z,13.90
2023-05-01T09:01:01.527Z,13.90
2023-05-01T09:03:32.970Z,13.90
2023-05-01T09:06:04.613Z,13.90
2023-05-01T09:08:33.722Z,13.90
2023-05-01T09:11:04.403Z,13.90
2023-05-01T09:13:33.662Z,13.90
2023-05-01T09:16:03.588Z,14.00
2023-05-01T09:18:32.129Z,14.00
2023-05-01T09:21:01.314Z,14.00
2023-05-01T09:23:32.246Z,14.00
2023-05-01T09:26:10.398Z,14.00
2023-05-01T09:28:48.234Z,14.00
2023-05-01T09:31:28.908Z,14.20
2023-05-01T09:34:02.775Z,14.20
2023-05-01T09:36:34.786Z,14.30
2023-05-01T09:39:08.883Z,14.30
2023-05-01T09:41:55.187Z,14.40
2023-05-01T09:44:23.981Z,14.30
2023-05-01T09:46:52.052Z,14.20
2023-05-01T09:49:20.682Z,14.30
2023-05-01T09:51:50.379Z,14.30
2023-05-01T09:54:20.976Z,14.30
2023-05-01T09:56:50.390Z,14.20
2023-05-01T09:59:20.883Z,14.30
2023-05-01T10:01:50.820Z,14.30
2023-05-01T10:04:31.532Z,14.30
2023-05-01T10:07:15.685Z,14.30
2023-05-01T10:09:44.305Z,14.30
2023-05-01T10:12:27.786Z,14.20
2023-05-01T10:14:58.234Z,14.20
2023-05-01T10:17:27.294Z,14.30
2023-05-01T10:19:56.663Z,14.40
2023-05-01T10:22:26.919Z,14.40
2023-05-01T10:24:56.174Z,14.30
2023-05-01T10:27:26.068Z,14.30
2023-05-01T10:29:55.285Z,14.40
2023-05-01T10:32:24.370Z,14.60
2023-05-01T10:34:59.335Z,14.90
2023-05-01T10:38:05.497Z,15.00
2023-05-01T10:40:39.560Z,15.00
2023-05-01T10:43:31.311Z,15.00
2023-05-01T10:46:09.515Z,15.00
2023-05-01T10:48:41.069Z,15.00
2023-05-01T10:51:20.616Z,15.10
2023-05-01T10:54:14.060Z,15.20
2023-05-01T10:56:43.755Z,15.10
2023-05-01T10:59:13.190Z,15.10
2023-05-01T11:01:48.067Z,15.20
2023-05-01T11:04:22.408Z,15.30
2023-05-01T11:07:14.687Z,15.20
2023-05-01T11:09:47.497Z,15.30
2023-05-01T11:12:36.963Z,15.20
2023-05-01T11:15:34.126Z,14.90
2023-05-01T11:18:03.750Z,15.00
2023-05-01T11:20:38.371Z,15.10
2023-05-01T11:23:31.458Z,15.10
2023-05-01T11:26:05.120Z,15.20
2023-05-01T11:28:34.402Z,15.10
2023-05-01T11:31:03.460Z,15.00
2023-05-01T11:33:31.696Z,15.00
2023-05-01T11:36:00.599Z,15.00
2023-05-01T11:38:28.740Z,15.00
2023-05-01T11:41:00.191Z,14.90
2023-05-01T11:43:28.360Z,14.90
2023-05-01T11:46:01.956Z,14.90
2023-05-01T11:48:31.484Z,15.00
2023-05-01T11:50:59.757Z,15.10
2023-05-01T11:53:27.956Z,15.10
2023-05-01T11:55:56.370Z,15.20
2023-05-01T11:58:34.640Z,15.20
2023-05-01T12:01:03.556Z,15.10
2023-05-01T12:03:42.060Z,15.10
2023-05-01T12:06:13.411Z,15.10
2023-05-01T12:08:50.473Z,15.00
2023-05-01T12:11:20.791Z,15.10
2023-05-01T12:13:50.620Z,15.10
2023-05-01T12:16:18.829Z,15.20
2023-05-01T12:18:48.420Z,15.30
2023-05-01T12:21:20.228Z,15.20
2023-05-01T12:23:51.173Z,15.30
2023-05-01T12:26:23.759Z,15.30
2023-05-01T12:29:00.853Z,15.30
2023-05-01T12:31:30.727Z,15.40
2023-05-01T12:34:01.049Z,15.40
2023-05-01T12:36:32.193Z,15.50
2023-05-01T12:39:10.163Z,15.50
2023-05-01T12:41:39.893Z,15.60
2023-05-01T12:44:19.187Z,15.70
2023-05-01T12:47:05.214Z,15.70
2023-05-01T12:49:36.377Z,15.80
2023-05-01T12:52:09.062Z,15.90
2023-05-01T12:54:38.854Z,15.80
2023-05-01T12:57:15.165Z,16.00
2023-05-01T12:59:46.292Z,16.10
2023-05-01T13:02:17.373Z,16.20
2023-05-01T13:04:47.191Z,16.20
2023-05-01T13:07:19.536Z,16.10
2023-05-01T13:09:58.244Z,16.10
2023-05-01T13:12:28.138Z,16.10
2023-05-01T13:14:57.192Z,16.00
2023-05-01T13:17:31.226Z,15.90
2023-05-01T13:20:01.685Z,15.80
2023-05-01T13:22:35.705Z,15.70
2023-05-01T13:25:06.493Z,15.60
2023-05-01T13:27:35.270Z,15.40
2023-05-01T13:30:03.991Z,15.40
2023-05-01T13:32:32.655Z,15.30
2023-05-01T13:35:03.418Z,15.20
2023-05-01T13:37:32.925Z,15.00
2023-05-01T13:40:01.126Z,15.00
2023-05-01T13:42:31.803Z,14.80
2023-05-01T13:45:00.412Z,14.70
2023-05-01T13:47:29.216Z,14.70
2023-05-01T13:49:58.080Z,14.70
2023-05-01T13:52:26.914Z,14.60
2023-05-01T13:54:57.167Z,14.60
2023-05-01T13:57:25.880Z,14.60
2023-05-01T13:59:53.945Z,14.50
2023-05-01T14:02:29.080Z,14.50
2023-05-01T14:04:59.321Z,14.50
2023-05-01T14:07:31.560Z,14.30
2023-05-01T14:10:00.117Z,14.40
2023-05-01T14:12:32.452Z,14.30
2023-05-01T14:15:05.137Z,14.20
2023-05-01T14:17:36.366Z,14.20
2023-05-01T14:20:08.718Z,14.20
2023-05-01T14:22:46.012Z,14.10
2023-05-01T14:25:26.589Z,14.10
2023-05-01T14:27:55.769Z,14.10
2023-05-01T14:30:34.237Z,14.20
2023-05-01T14:33:03.844Z,14.20
2023-05-01T14:35:32.269Z,14.10
2023-05-01T14:38:13.243Z,14.20
2023-05-01T14:40:42.363Z,14.10
2023-05-01T14:43:13.421Z,14.10
2023-05-01T14:45:43.319Z,14.10
2023-05-01T14:48:22.194Z,14.10
2023-05-01T14:50:51.257Z,14.00
2023-05-01T14:53:19.371Z,14.00
2023-05-01T14:55:51.225Z,14.00
2023-05-01T14:58:21.903Z,13.90
2023-05-01T15:00:50.238Z,13.80
2023-05-01T15:03:18.897Z,13.70
2023-05-01T15:05:47.153Z,13.80
2023-05-01T15:08:15.561Z,13.70
2023-05-01T15:10:45.098Z,13.70
2023-05-01T15:13:13.386Z,13.80
2023-05-01T15:15:41.673Z,13.80
2023-05-01T15:18:09.955Z,13.90
2023-05-01T15:20:38.156Z,13.90
2023-05-01T15:23:06.537Z,14.00
2023-05-01T15:25:34.865Z,14.00
2023-05-01T15:28:03.660Z,14.00
2023-05-01T15:30:32.015Z,14.00
2023-05-01T15:33:00.303Z,13.90
2023-05-01T15:35:28.356Z,13.90
2023-05-01T15:37:57.943Z,13.80
2023-05-01T15:40:26.386Z,13.90
2023-05-01T15:42:54.967Z,13.90
2023-05-01T15:45:23.547Z,14.00
2023-05-01T15:47:52.016Z,14.00
2023-05-01T15:50:20.984Z,13.90
2023-05-01T15:52:50.836Z,13.90
2023-05-01T15:55:19.675Z,13.80
2023-05-01T15:57:49.065Z,13.80
2023-05-01T16:00:17.716Z,13.70
2023-05-01T16:02:46.134Z,13.70
2023-05-01T16:05:21.364Z,13.70
2023-05-01T16:07:59.855Z,13.70
2023-05-01T16:10:28.035Z,13.70
2023-05-01T16:12:56.308Z,13.70
2023-05-01T16:15:24.482Z,13.70
2023-05-01T16:17:55.123Z,13.60
2023-05-01T16:20:24.257Z,13.60
2023-05-01T16:22:52.373Z,13.70
2023-05-01T16:25:21.114Z,13.70
2023-05-01T16:27:49.378Z,13.60
2023-05-01T16:30:17.710Z,13.60
2023-05-01T16:32:46.348Z,13.60
2023-05-01T16:35:18.680Z,13.50
2023-05-01T16:37:46.957Z,13.60
2023-05-01T16:40:18.517Z,13.50
2023-05-01T16:42:54.293Z,13.60
2023-05-01T16:45:22.760Z,13.50
2023-05-01T16:47:51.571Z,13.50
2023-05-01T16:50:22.751Z,13.50
2023-05-01T16:52:55.234Z,13.50
2023-05-01T16:55:24.802Z,13.50
2023-05-01T16:57:54.529Z,13.50
2023-05-01T17:00:22.891Z,13.60
2023-05-01T17:02:52.508Z,13.50
2023-05-01T17:05:20.702Z,13.50
2023-05-01T17:07:48.849Z,13.50
2023-05-01T17:10:17.082Z,13.50
2023-05-01T17:12:45.305Z,13.40
2023-05-01T17:15:13.806Z,13.40
2023-05-01T17:17:42.061Z,13.40
2023-05-01T17:20:11.433Z,13.40
2023-05-01T17:22:39.864Z,13.30
2023-05-01T17:25:20.952Z,13.30
2023-05-01T17:27:52.409Z,13.30
2023-05-01T17:30:20.443Z,13.30
2023-05-01T17:32:48.611Z,13.20
2023-05-01T17:35:17.051Z,13.30
2023-05-01T17:37:45.313Z,13.30
2023-05-01T17:40:13.900Z,13.30
2023-05-01T17:42:42.180Z,13.30
2023-05-01T17:45:11.682Z,13.40
2023-05-01T17:47:45.123Z,13.30
2023-05-01T17:50:14.169Z,13.30
2023-05-01T17:52:45.186Z,13.30
2023-05-01T17:55:17.149Z,13.40
2023-05-01T17:57:47.644Z,13.40
2023-05-01T18:00:19.231Z,13.30
2023-05-01T18:02:48.690Z,13.40
2023-05-01T18:05:17.126Z,13.40
2023-05-01T18:07:45.192Z,13.40
2023-05-01T18:10:38.803Z,13.50
2023-05-01T18:13:07.314Z,13.50
2023-05-01T18:15:35.759Z,13.60
2023-05-01T18:18:03.997Z,13.60
2023-05-01T18:20:32.295Z,13.60
2023-05-01T18:23:01.734Z,13.50
2023-05-01T18:25:30.262Z,13.60
2023-05-01T18:27:59.085Z,13.60
2023-05-01T18:30:27.291Z,13.50
2023-05-01T18:32:55.467Z,13.50
2023-05-01T18:35:23.896Z,13.50
2023-05-01T18:37:52.214Z,13.50
2023-05-01T18:40:20.502Z,13.50
2023-05-01T18:42:48.544Z,13.50
2023-05-01T18:45:16.852Z,13.50
2023-05-01T18:47:44.990Z,13.50
2023-05-01T18:50:13.365Z,13.40
2023-05-01T18:52:42.451Z,13.30
2023-05-01T18:55:11.705Z,13.20
2023-05-01T18:57:41.936Z,13.20
2023-05-01T19:00:20.527Z,13.20
2023-05-01T19:02:52.103Z,13.20
2023-05-01T19:05:22.682Z,13.20
2023-05-01T19:07:51.225Z,13.20
2023-05-01T19:10:19.385Z,13.20
2023-05-01T19:12:49.808Z,13.20
2023-05-01T19:15:18.050Z,13.20
2023-05-01T19:17:46.357Z,13.20
2023-05-01T19:20:14.511Z,13.20
2023-05-01T19:22:42.757Z,13.20
2023-05-01T19:25:11.133Z,13.20
2023-05-01T19:27:39.365Z,13.20
2023-05-01T19:30:08.278Z,13.10
2023-05-01T19:32:37.068Z,13.10
2023-05-01T19:35:05.760Z,13.10
2023-05-01T19:37:33.865Z,13.10
2023-05-01T19:40:02.169Z,13.20
2023-05-01T19:42:31.655Z,13.20
2023-05-01T19:44:59.882Z,13.10
2023-05-01T19:47:28.150Z,13.10
2023-05-01T19:49:56.319Z,13.10
2023-05-01T19:52:24.566Z,13.10
2023-05-01T19:54:52.687Z,13.10
2023-05-01T19:57:20.784Z,13.20
2023-05-01T19:59:49.500Z,13.20
2023-05-01T20:02:17.785Z,13.10
2023-05-01T20:04:46.786Z,13.10
2023-05-01T20:07:16.759Z,13.10
2023-05-01T20:09:46.130Z,13.10
2023-05-01T20:12:14.259Z,13.10
2023-05-01T20:14:42.375Z,13.20
2023-05-01T20:17:11.337Z,13.20
2023-05-01T20:19:40.049Z,13.20
2023-05-01T20:22:33.998Z,13.20
2023-05-01T20:25:02.320Z,13.20
2023-05-01T20:27:31.457Z,13.30
2023-05-01T20:30:00.285Z,13.30
2023-05-01T20:32:28.721Z,13.20
2023-05-01T20:34:58.168Z,13.20
2023-05-01T20:37:26.911Z,13.20
2023-05-01T20:39:55.073Z,13.20
2023-05-01T20:42:23.354Z,13.20
2023-05-01T20:44:51.487Z,13.30
2023-05-01T20:47:19.548Z,13.20
2023-05-01T20:49:47.771Z,13.20
2023-05-01T20:52:15.872Z,13.20
2023-05-01T20:54:44.129Z,13.20
2023-05-01T20:57:18.286Z,13.20
2023-05-01T20:59:50.596Z,13.20
2023-05-01T21:02:19.087Z,13.20
2023-05-01T21:04:47.569Z,13.10
2023-05-01T21:07:15.869Z,13.10
2023-05-01T21:09:45.802Z,13.10
2023-05-01T21:12:14.634Z,13.10
2023-05-01T21:14:42.916Z,13.10
2023-05-01T21:17:11.936Z,13.10
2023-05-01T21:19:47.204Z,13.10
2023-05-01T21:22:18.597Z,13.10
2023-05-01T21:24:53.108Z,13.10
2023-05-01T21:27:22.305Z,13.00
2023-05-01T21:29:58.801Z,13.00
2023-05-01T21:32:34.195Z,13.00
2023-05-01T21:35:03.831Z,13.00
2023-05-01T21:37:33.991Z,12.90
2023-05-01T21:40:06.814Z,12.90
2023-05-01T21:42:40.068Z,12.90
2023-05-01T21:45:10.711Z,12.90
2023-05-01T21:47:41.372Z,13.00
2023-05-01T21:50:12.902Z,13.00
2023-05-01T21:52:41.994Z,13.00
2023-05-01T21:55:16.318Z,13.00
2023-05-01T21:57:45.766Z,13.00
2023-05-01T22:00:14.384Z,13.00
2023-05-01T22:02:49.548Z,13.00
2023-05-01T22:05:23.470Z,13.00
2023-05-01T22:07:54.135Z,13.00
2023-05-01T22:10:23.306Z,13.10
2023-05-01T22:12:51.967Z,13.10
2023-05-01T22:15:20.574Z,13.10
2023-05-01T22:17:49.333Z,13.00
2023-05-01T22:20:18.923Z,13.10
2023-05-01T22:22:47.562Z,13.00
2023-05-01T22:25:17.048Z,13.10
2023-05-01T22:27:45.218Z,12.90
2023-05-01T22:30:14.961Z,13.00
2023-05-01T22:32:43.207Z,13.00
2023-05-01T22:35:12.284Z,13.00
2023-05-01T22:37:41.341Z,13.00
2023-05-01T22:40:09.958Z,13.00
2023-05-01T22:42:37.911Z,12.90
2023-05-01T22:45:07.397Z,13.00
2023-05-01T22:47:35.771Z,13.00
2023-05-01T22:50:05.454Z,13.00
2023-05-01T22:52:33.684Z,12.90
2023-05-01T22:55:01.919Z,12.90
2023-05-01T22:57:32.496Z,12.90
2023-05-01T23:00:01.989Z,12.90
2023-05-01T23:02:33.832Z,12.80
2023-05-01T23:05:02.458Z,12.80
2023-05-01T23:07:32.137Z,12.80
2023-05-01T23:10:01.182Z,12.90
2023-05-01T23:12:33.109Z,12.90
2023-05-01T23:15:01.782Z,12.90
2023-05-01T23:17:36.217Z,12.90
2023-05-01T23:20:07.755Z,12.90
2023-05-01T23:22:38.298Z,12.80
2023-05-01T23:25:08.084Z,12.80
2023-05-01T23:27:43.086Z,12.80
2023-05-01T23:30:13.261Z,12.80
2023-05-01T23:32:42.009Z,12.70
2023-05-01T23:35:14.688Z,12.70
2023-05-01T23:37:43.916Z,12.70
2023-05-01T23:40:13.329Z,12.70
2023-05-01T23:42:41.959Z,12.70
2023-05-01T23:45:10.313Z,12.70
2023-05-01T23:47:39.751Z,12.70
2023-05-01T23:50:08.340Z,12.70
2023-05-01T23:52:37.387Z,12.70
2023-05-01T23:55:05.992Z,12.80
2023-05-01T23:57:34.566Z,12.70
